Time,TemperatureF,DewpointF,PressureIn,WindDirection,WindDirectionDegrees,WindSpeedMPH,WindSpeedGustMPH,Humidity,HourlyPrecipIn,Conditions,Clouds,dailyrainin,SoftwareType,DateUTC
2013-02-27 00:00:00,42.7,35.7,30.15,North,351,0.0,0.0,76,0.00,,CLR,0.00,VWS V14.00,2013-02-27 08:00:00,
2013-02-27 00:01:00,44.6,36.5,30.15,North,351,0.0,0.0,73,0.00,,CLR,0.00,VWS V14.00,2013-02-27 08:01:00,
2013-02-27 00:06:00,44.5,36.7,30.14,North,351,0.0,0.0,74,0.00,,CLR,0.00,VWS V14.00,2013-02-27 08:06:00,
2013-02-27 00:11:00,44.3,36.5,30.14,North,351,0.0,0.0,74,0.00,,CLR,0.00,VWS V14.00,2013-02-27 08:11:00,
2013-02-27 00:16:00,44.2,36.5,30.14,North,351,0.0,0.0,74,0.00,,CLR,0.00,VWS V14.00,2013-02-27 08:16:00,
2013-02-27 00:21:00,43.9,36.2,30.14,North,351,0.0,0.0,74,0.00,,CLR,0.00,VWS V14.00,2013-02-27 08:21:00,
2013-02-27 00:26:00,43.7,36.0,30.14,North,351,0.0,0.0,74,0.00,,CLR,0.00,VWS V14.00,2013-02-27 08:26:00,
2013-02-27 00:30:00,41.9,35.2,30.16,North,351,0.0,0.0,77,0.00,,CLR,0.00,VWS V14.00,2013-02-27 08:30:00,
2013-02-27 00:31:00,43.5,36.1,30.14,North,351,0.0,0.0,75,0.00,,CLR,0.00,VWS V14.00,2013-02-27 08:31:00,
2013-02-27 00:36:00,43.5,36.1,30.14,North,351,0.0,0.0,75,0.00,,CLR,0.00,VWS V14.00,2013-02-27 08:36:00,
2013-02-27 00:41:00,43.3,36.3,30.15,North,351,0.0,0.0,76,0.00,,CLR,0.00,VWS V14.00,2013-02-27 08:41:00,
2013-02-27 00:46:00,43.0,35.6,30.15,North,351,0.0,0.0,75,0.00,,CLR,0.00,VWS V14.00,2013-02-27 08:46:00,
2013-02-27 00:51:00,42.8,35.8,30.14,North,351,0.0,0.0,76,0.00,,CLR,0.00,VWS V14.00,2013-02-27 08:51:00,
2013-02-27 00:56:00,42.8,35.8,30.14,North,351,0.0,0.0,76,0.00,,CLR,0.00,VWS V14.00,2013-02-27 08:56:00,
2013-02-27 01:00:00,41.1,34.8,30.16,North,351,0.0,0.0,78,0.00,,CLR,0.00,VWS V14.00,2013-02-27 09:00:00,
2013-02-27 01:01:00,42.6,35.6,30.15,North,351,0.0,0.0,76,0.00,,CLR,0.00,VWS V14.00,2013-02-27 09:01:00,
2013-02-27 01:06:00,42.5,35.5,30.15,North,351,0.0,0.0,76,0.00,,CLR,0.00,VWS V14.00,2013-02-27 09:06:00,
2013-02-27 01:11:00,42.2,35.5,30.15,North,351,0.0,0.0,77,0.00,,CLR,0.00,VWS V14.00,2013-02-27 09:11:00,
2013-02-27 01:16:00,42.1,35.4,30.15,North,351,0.0,0.0,77,0.00,,CLR,0.00,VWS V14.00,2013-02-27 09:16:00,
2013-02-27 01:21:00,42.1,35.4,30.15,North,351,0.0,0.0,77,0.00,,CLR,0.00,VWS V14.00,2013-02-27 09:21:00,
2013-02-27 01:26:00,41.8,35.1,30.16,North,351,0.0,0.0,77,0.00,,CLR,0.00,VWS V14.00,2013-02-27 09:26:00,
2013-02-27 01:30:00,40.3,34.0,30.16,North,351,0.0,0.0,78,0.00,,CLR,0.00,VWS V14.00,2013-02-27 09:30:00,
2013-02-27 01:31:00,41.9,35.2,30.15,North,351,0.0,0.0,77,0.00,,CLR,0.00,VWS V14.00,2013-02-27 09:31:00,
2013-02-27 01:36:00,41.6,35.3,30.15,North,351,0.0,0.0,78,0.00,,CLR,0.00,VWS V14.00,2013-02-27 09:36:00,
2013-02-27 01:41:00,41.7,35.4,30.15,North,351,0.0,0.0,78,0.00,,CLR,0.00,VWS V14.00,2013-02-27 09:41:00,
2013-02-27 01:46:00,41.5,35.2,30.15,North,351,0.0,0.0,78,0.00,,CLR,0.00,VWS V14.00,2013-02-27 09:46:00,
2013-02-27 01:51:00,41.4,34.7,30.16,North,351,0.0,0.0,77,0.00,,CLR,0.00,VWS V14.00,2013-02-27 09:51:00,
2013-02-27 01:56:00,41.1,34.8,30.16,North,351,0.0,0.0,78,0.00,,CLR,0.00,VWS V14.00,2013-02-27 09:56:00,
2013-02-27 02:00:00,39.8,33.8,30.16,North,351,0.0,0.0,79,0.00,,CLR,0.00,VWS V14.00,2013-02-27 10:00:00,
2013-02-27 02:01:00,41.2,34.5,30.15,North,351,0.0,0.0,77,0.00,,CLR,0.00,VWS V14.00,2013-02-27 10:01:00,
2013-02-27 02:06:00,40.9,34.6,30.16,North,351,0.0,0.0,78,0.00,,CLR,0.00,VWS V14.00,2013-02-27 10:06:00,
2013-02-27 02:11:00,40.9,34.6,30.15,North,351,0.0,0.0,78,0.00,,CLR,0.00,VWS V14.00,2013-02-27 10:11:00,
2013-02-27 02:16:00,40.6,34.3,30.16,North,351,0.0,0.0,78,0.00,,CLR,0.00,VWS V14.00,2013-02-27 10:16:00,
2013-02-27 02:21:00,40.6,34.3,30.15,North,351,0.0,0.0,78,0.00,,CLR,0.00,VWS V14.00,2013-02-27 10:21:00,
2013-02-27 02:26:00,40.5,34.2,30.15,North,351,0.0,0.0,78,0.00,,CLR,0.00,VWS V14.00,2013-02-27 10:26:00,
2013-02-27 02:30:00,39.2,33.9,30.16,North,351,0.0,0.0,81,0.00,,CLR,0.00,VWS V14.00,2013-02-27 10:30:00,
2013-02-27 02:31:00,40.4,34.1,30.16,North,351,0.0,0.0,78,0.00,,CLR,0.00,VWS V14.00,2013-02-27 10:31:00,
2013-02-27 02:36:00,40.4,34.1,30.16,North,351,0.0,0.0,78,0.00,,CLR,0.00,VWS V14.00,2013-02-27 10:36:00,
2013-02-27 02:41:00,40.1,34.1,30.16,North,351,0.0,0.0,79,0.00,,CLR,0.00,VWS V14.00,2013-02-27 10:41:00,
2013-02-27 02:46:00,40.1,34.1,30.16,North,351,0.0,0.0,79,0.00,,CLR,0.00,VWS V14.00,2013-02-27 10:46:00,
2013-02-27 02:51:00,39.9,33.9,30.16,North,351,0.0,0.0,79,0.00,,CLR,0.00,VWS V14.00,2013-02-27 10:51:00,
2013-02-27 02:56:00,39.7,33.7,30.16,North,351,0.0,0.0,79,0.00,,CLR,0.00,VWS V14.00,2013-02-27 10:56:00,
2013-02-27 03:00:00,38.6,33.6,30.17,North,351,0.0,0.0,82,0.00,,CLR,0.00,VWS V14.00,2013-02-27 11:00:00,
2013-02-27 03:01:00,39.9,33.9,30.16,North,351,0.0,0.0,79,0.00,,CLR,0.00,VWS V14.00,2013-02-27 11:01:00,
2013-02-27 03:06:00,39.7,33.7,30.16,North,351,0.0,0.0,79,0.00,,CLR,0.00,VWS V14.00,2013-02-27 11:06:00,
2013-02-27 03:11:00,39.7,34.0,30.16,North,351,0.0,0.0,80,0.00,,CLR,0.00,VWS V14.00,2013-02-27 11:11:00,
2013-02-27 03:16:00,39.5,33.8,30.17,North,351,0.0,0.0,80,0.00,,CLR,0.00,VWS V14.00,2013-02-27 11:16:00,
2013-02-27 03:21:00,39.5,33.8,30.16,North,351,0.0,0.0,80,0.00,,CLR,0.00,VWS V14.00,2013-02-27 11:21:00,
2013-02-27 03:26:00,39.4,33.8,30.16,North,351,0.0,0.0,80,0.00,,CLR,0.00,VWS V14.00,2013-02-27 11:26:00,
2013-02-27 03:30:00,38.2,33.2,30.17,North,351,0.0,0.0,82,0.00,,CLR,0.00,VWS V14.00,2013-02-27 11:30:00,
2013-02-27 03:31:00,39.1,33.8,30.16,North,351,0.0,0.0,81,0.00,,CLR,0.00,VWS V14.00,2013-02-27 11:31:00,
2013-02-27 03:36:00,39.1,33.8,30.16,North,351,0.0,0.0,81,0.00,,CLR,0.00,VWS V14.00,2013-02-27 11:36:00,
2013-02-27 03:41:00,39.0,33.7,30.16,North,351,0.0,0.0,81,0.00,,CLR,0.00,VWS V14.00,2013-02-27 11:41:00,
2013-02-27 03:46:00,39.0,33.7,30.16,North,351,0.0,0.0,81,0.00,,CLR,0.00,VWS V14.00,2013-02-27 11:46:00,
2013-02-27 03:51:00,38.7,33.4,30.17,North,351,0.0,0.0,81,0.00,,CLR,0.00,VWS V14.00,2013-02-27 11:51:00,
2013-02-27 03:56:00,38.5,33.2,30.17,North,351,0.0,0.0,81,0.00,,CLR,0.00,VWS V14.00,2013-02-27 11:56:00,
2013-02-27 04:00:00,37.6,32.6,30.18,North,351,0.0,0.0,82,0.00,,CLR,0.00,VWS V14.00,2013-02-27 12:00:00,
2013-02-27 04:01:00,38.7,33.7,30.17,North,351,0.0,0.0,82,0.00,,CLR,0.00,VWS V14.00,2013-02-27 12:01:00,
2013-02-27 04:06:00,38.3,33.0,30.17,North,351,0.0,0.0,81,0.00,,CLR,0.00,VWS V14.00,2013-02-27 12:06:00,
2013-02-27 04:11:00,38.6,33.6,30.17,North,351,0.0,0.0,82,0.00,,CLR,0.00,VWS V14.00,2013-02-27 12:11:00,
2013-02-27 04:16:00,38.4,33.1,30.17,North,351,0.0,0.0,81,0.00,,CLR,0.00,VWS V14.00,2013-02-27 12:16:00,
2013-02-27 04:21:00,38.4,33.1,30.17,North,351,0.0,0.0,81,0.00,,CLR,0.00,VWS V14.00,2013-02-27 12:21:00,
2013-02-27 04:26:00,38.2,33.2,30.17,North,351,0.0,0.0,82,0.00,,CLR,0.00,VWS V14.00,2013-02-27 12:26:00,
2013-02-27 04:30:00,37.1,32.1,30.18,North,351,0.0,0.0,82,0.00,,CLR,0.00,VWS V14.00,2013-02-27 12:30:00,
2013-02-27 04:31:00,38.0,32.7,30.18,North,351,0.0,0.0,81,0.00,,CLR,0.00,VWS V14.00,2013-02-27 12:31:00,
2013-02-27 04:36:00,38.1,33.1,30.17,North,351,0.0,0.0,82,0.00,,CLR,0.00,VWS V14.00,2013-02-27 12:36:00,
2013-02-27 04:41:00,37.9,32.6,30.17,North,351,0.0,0.0,81,0.00,,CLR,0.00,VWS V14.00,2013-02-27 12:41:00,
2013-02-27 04:46:00,37.7,32.7,30.17,North,351,0.0,0.0,82,0.00,,CLR,0.00,VWS V14.00,2013-02-27 12:46:00,
2013-02-27 04:51:00,37.8,32.8,30.17,North,351,0.0,0.0,82,0.00,,CLR,0.00,VWS V14.00,2013-02-27 12:51:00,
2013-02-27 04:56:00,37.6,32.3,30.18,North,351,0.0,0.0,81,0.00,,CLR,0.00,VWS V14.00,2013-02-27 12:56:00,
2013-02-27 05:00:00,36.7,32.0,30.18,North,351,0.0,0.0,83,0.00,,CLR,0.00,VWS V14.00,2013-02-27 13:00:00,
2013-02-27 05:02:00,37.5,32.2,30.18,North,351,0.0,0.0,81,0.00,,CLR,0.00,VWS V14.00,2013-02-27 13:02:00,
2013-02-27 05:07:00,37.5,32.2,30.17,North,351,0.0,0.0,81,0.00,,CLR,0.00,VWS V14.00,2013-02-27 13:07:00,
2013-02-27 05:12:00,37.5,32.5,30.18,North,351,0.0,0.0,82,0.00,,CLR,0.00,VWS V14.00,2013-02-27 13:12:00,
2013-02-27 05:17:00,37.4,32.4,30.17,North,351,0.0,0.0,82,0.00,,CLR,0.00,VWS V14.00,2013-02-27 13:17:00,
2013-02-27 05:22:00,37.4,32.1,30.18,North,351,0.0,0.0,81,0.00,,CLR,0.00,VWS V14.00,2013-02-27 13:22:00,
2013-02-27 05:27:00,37.2,31.9,30.18,North,351,0.0,0.0,81,0.00,,CLR,0.00,VWS V14.00,2013-02-27 13:27:00,
2013-02-27 05:30:00,36.7,32.3,30.18,North,351,0.0,0.0,84,0.00,,CLR,0.00,VWS V14.00,2013-02-27 13:30:00,
2013-02-27 05:32:00,37.0,32.0,30.18,North,351,0.0,0.0,82,0.00,,CLR,0.00,VWS V14.00,2013-02-27 13:32:00,
2013-02-27 05:37:00,37.0,32.3,30.17,North,351,0.0,0.0,83,0.00,,CLR,0.00,VWS V14.00,2013-02-27 13:37:00,
2013-02-27 05:42:00,37.0,32.0,30.18,North,351,0.0,0.0,82,0.00,,CLR,0.00,VWS V14.00,2013-02-27 13:42:00,
2013-02-27 05:47:00,36.8,32.1,30.17,North,351,0.0,0.0,83,0.00,,CLR,0.00,VWS V14.00,2013-02-27 13:47:00,
2013-02-27 05:52:00,36.7,32.0,30.18,North,351,0.0,0.0,83,0.00,,CLR,0.00,VWS V14.00,2013-02-27 13:52:00,
2013-02-27 05:57:00,36.5,31.8,30.18,North,351,0.0,0.0,83,0.00,,CLR,0.00,VWS V14.00,2013-02-27 13:57:00,
2013-02-27 06:00:00,36.1,31.7,30.19,North,351,0.0,0.0,84,0.00,,CLR,0.00,VWS V14.00,2013-02-27 14:00:00,
2013-02-27 06:02:00,36.6,31.9,30.18,North,351,0.0,0.0,83,0.00,,CLR,0.00,VWS V14.00,2013-02-27 14:02:00,
2013-02-27 06:07:00,36.7,32.3,30.18,North,351,0.0,0.0,84,0.00,,CLR,0.00,VWS V14.00,2013-02-27 14:07:00,
2013-02-27 06:12:00,36.7,32.0,30.18,North,351,0.0,0.0,83,0.00,,CLR,0.00,VWS V14.00,2013-02-27 14:12:00,
2013-02-27 06:17:00,36.7,32.0,30.19,North,351,0.0,0.0,83,0.00,,CLR,0.00,VWS V14.00,2013-02-27 14:17:00,
2013-02-27 06:22:00,36.4,32.0,30.19,North,351,0.0,0.0,84,0.00,,CLR,0.00,VWS V14.00,2013-02-27 14:22:00,
2013-02-27 06:27:00,36.4,32.0,30.19,North,351,0.0,0.0,84,0.00,,CLR,0.00,VWS V14.00,2013-02-27 14:27:00,
2013-02-27 06:30:00,36.8,32.7,30.20,North,351,0.0,0.0,85,0.00,,CLR,0.00,VWS V14.00,2013-02-27 14:30:00,
2013-02-27 06:32:00,36.4,32.0,30.18,North,351,0.0,0.0,84,0.00,,CLR,0.00,VWS V14.00,2013-02-27 14:32:00,
2013-02-27 06:37:00,36.3,31.9,30.18,North,351,0.0,0.0,84,0.00,,CLR,0.00,VWS V14.00,2013-02-27 14:37:00,
2013-02-27 06:42:00,36.4,31.7,30.18,North,351,0.0,0.0,83,0.00,,CLR,0.00,VWS V14.00,2013-02-27 14:42:00,
2013-02-27 06:47:00,36.1,31.7,30.18,North,351,0.0,0.0,84,0.00,,CLR,0.00,VWS V14.00,2013-02-27 14:47:00,
2013-02-27 06:52:00,36.0,31.4,30.19,North,351,0.0,0.0,83,0.00,,CLR,0.00,VWS V14.00,2013-02-27 14:52:00,
2013-02-27 06:57:00,36.1,31.7,30.19,North,351,0.0,0.0,84,0.00,,CLR,0.00,VWS V14.00,2013-02-27 14:57:00,
2013-02-27 07:00:00,38.2,34.1,30.23,North,351,0.0,0.0,85,0.00,,CLR,0.00,VWS V14.00,2013-02-27 15:00:00,
2013-02-27 07:02:00,36.4,32.0,30.19,North,351,0.0,0.0,84,0.00,,CLR,0.00,VWS V14.00,2013-02-27 15:02:00,
2013-02-27 07:07:00,36.1,31.7,30.19,North,351,0.0,0.0,84,0.00,,CLR,0.00,VWS V14.00,2013-02-27 15:07:00,
2013-02-27 07:12:00,36.2,32.1,30.20,North,351,0.0,0.0,85,0.00,,CLR,0.00,VWS V14.00,2013-02-27 15:12:00,
2013-02-27 07:17:00,36.5,32.4,30.20,North,351,0.0,0.0,85,0.00,,CLR,0.00,VWS V14.00,2013-02-27 15:17:00,
2013-02-27 07:22:00,36.3,32.2,30.20,North,351,0.0,0.0,85,0.00,,CLR,0.00,VWS V14.00,2013-02-27 15:22:00,
2013-02-27 07:27:00,36.6,32.5,30.20,North,351,0.0,0.0,85,0.00,,CLR,0.00,VWS V14.00,2013-02-27 15:27:00,
2013-02-27 07:30:00,40.0,34.7,30.24,North,351,0.0,0.0,81,0.00,,CLR,0.00,VWS V14.00,2013-02-27 15:30:00,
2013-02-27 07:32:00,36.8,32.4,30.20,North,351,0.0,0.0,84,0.00,,CLR,0.00,VWS V14.00,2013-02-27 15:32:00,
2013-02-27 07:37:00,37.0,32.6,30.21,North,351,0.0,0.0,84,0.00,,CLR,0.00,VWS V14.00,2013-02-27 15:37:00,
2013-02-27 07:42:00,37.4,33.3,30.21,North,351,0.0,0.0,85,0.00,,CLR,0.00,VWS V14.00,2013-02-27 15:42:00,
2013-02-27 07:47:00,37.5,33.1,30.22,North,351,0.0,0.0,84,0.00,,CLR,0.00,VWS V14.00,2013-02-27 15:47:00,
2013-02-27 07:52:00,37.9,33.5,30.22,North,351,0.0,0.0,84,0.00,,CLR,0.00,VWS V14.00,2013-02-27 15:52:00,
2013-02-27 07:57:00,38.2,33.8,30.22,North,351,0.0,0.0,84,0.00,,CLR,0.00,VWS V14.00,2013-02-27 15:57:00,
2013-02-27 08:00:00,42.1,36.1,30.25,North,351,0.0,0.0,79,0.00,,CLR,0.00,VWS V14.00,2013-02-27 16:00:00,
2013-02-27 08:02:00,38.3,34.2,30.23,North,351,0.0,0.0,85,0.00,,CLR,0.00,VWS V14.00,2013-02-27 16:02:00,
2013-02-27 08:07:00,38.6,34.2,30.23,North,351,0.0,0.0,84,0.00,,CLR,0.00,VWS V14.00,2013-02-27 16:07:00,
2013-02-27 08:12:00,38.8,34.4,30.23,North,351,0.0,0.0,84,0.00,,CLR,0.00,VWS V14.00,2013-02-27 16:12:00,
2013-02-27 08:17:00,39.1,34.7,30.24,North,351,0.0,0.0,84,0.00,,CLR,0.00,VWS V14.00,2013-02-27 16:17:00,
2013-02-27 08:22:00,39.6,34.6,30.24,North,351,0.0,0.0,82,0.00,,CLR,0.00,VWS V14.00,2013-02-27 16:22:00,
2013-02-27 08:27:00,39.8,34.5,30.24,North,351,0.0,0.0,81,0.00,,CLR,0.00,VWS V14.00,2013-02-27 16:27:00,
2013-02-27 08:30:00,44.7,37.9,30.25,North,351,0.0,0.0,77,0.00,,CLR,0.00,VWS V14.00,2013-02-27 16:30:00,
2013-02-27 08:32:00,40.3,34.9,30.24,North,351,0.0,0.0,81,0.00,,CLR,0.00,VWS V14.00,2013-02-27 16:32:00,
2013-02-27 08:37:00,40.4,35.0,30.25,North,351,0.0,0.0,81,0.00,,CLR,0.00,VWS V14.00,2013-02-27 16:37:00,
2013-02-27 08:42:00,40.4,34.7,30.25,North,351,0.0,0.0,80,0.00,,CLR,0.00,VWS V14.00,2013-02-27 16:42:00,
2013-02-27 08:47:00,41.1,35.7,30.24,North,351,0.0,0.0,81,0.00,,CLR,0.00,VWS V14.00,2013-02-27 16:47:00,
2013-02-27 08:52:00,41.4,35.7,30.24,North,351,0.0,0.0,80,0.00,,CLR,0.00,VWS V14.00,2013-02-27 16:52:00,
2013-02-27 08:57:00,41.8,35.8,30.25,North,351,0.0,0.0,79,0.00,,CLR,0.00,VWS V14.00,2013-02-27 16:57:00,
2013-02-27 09:00:00,47.7,38.4,30.25,North,351,0.0,0.0,70,0.00,,CLR,0.00,VWS V14.00,2013-02-27 17:00:00,
2013-02-27 09:02:00,42.3,36.3,30.25,North,351,0.0,0.0,79,0.00,,CLR,0.00,VWS V14.00,2013-02-27 17:02:00,
2013-02-27 09:07:00,43.0,36.9,30.25,North,351,0.0,0.0,79,0.00,,CLR,0.00,VWS V14.00,2013-02-27 17:07:00,
2013-02-27 09:12:00,43.2,37.1,30.25,North,351,0.0,0.0,79,0.00,,CLR,0.00,VWS V14.00,2013-02-27 17:12:00,
2013-02-27 09:17:00,43.9,37.5,30.24,North,351,0.0,0.0,78,0.00,,CLR,0.00,VWS V14.00,2013-02-27 17:17:00,
2013-02-27 09:22:00,44.2,37.8,30.25,North,351,0.0,0.0,78,0.00,,CLR,0.00,VWS V14.00,2013-02-27 17:22:00,
2013-02-27 09:27:00,44.4,38.0,30.25,North,351,0.0,0.0,78,0.00,,CLR,0.00,VWS V14.00,2013-02-27 17:27:00,
2013-02-27 09:30:00,51.0,38.5,30.25,North,351,0.0,1.0,62,0.00,,CLR,0.00,VWS V14.00,2013-02-27 17:30:00,
2013-02-27 09:32:00,45.1,38.0,30.25,North,351,0.0,0.0,76,0.00,,CLR,0.00,VWS V14.00,2013-02-27 17:32:00,
2013-02-27 09:37:00,45.4,38.0,30.24,North,351,0.0,0.0,75,0.00,,CLR,0.00,VWS V14.00,2013-02-27 17:37:00,
2013-02-27 09:42:00,46.0,37.8,30.25,North,351,0.0,0.0,73,0.00,,CLR,0.00,VWS V14.00,2013-02-27 17:42:00,
2013-02-27 09:47:00,46.6,38.4,30.25,North,351,0.0,0.0,73,0.00,,CLR,0.00,VWS V14.00,2013-02-27 17:47:00,
2013-02-27 09:52:00,46.8,37.5,30.24,North,351,0.0,0.0,70,0.00,,CLR,0.00,VWS V14.00,2013-02-27 17:52:00,
2013-02-27 09:57:00,47.5,37.8,30.25,North,351,0.0,0.0,69,0.00,,CLR,0.00,VWS V14.00,2013-02-27 17:57:00,
2013-02-27 10:00:00,54.9,37.6,30.25,North,358,0.0,2.0,52,0.00,,CLR,0.00,VWS V14.00,2013-02-27 18:00:00,
2013-02-27 10:02:00,48.1,38.4,30.25,North,351,0.0,0.0,69,0.00,,CLR,0.00,VWS V14.00,2013-02-27 18:02:00,
2013-02-27 10:07:00,48.5,37.7,30.25,North,351,0.0,0.0,66,0.00,,CLR,0.00,VWS V14.00,2013-02-27 18:07:00,
2013-02-27 10:12:00,49.1,37.9,30.25,North,351,0.0,1.0,65,0.00,,CLR,0.00,VWS V14.00,2013-02-27 18:12:00,
2013-02-27 10:17:00,49.6,37.5,30.25,North,351,0.0,1.0,63,0.00,,CLR,0.00,VWS V14.00,2013-02-27 18:17:00,
2013-02-27 10:22:00,50.2,38.1,30.24,North,351,0.0,1.0,63,0.00,,CLR,0.00,VWS V14.00,2013-02-27 18:22:00,
2013-02-27 10:27:00,50.6,38.1,30.25,North,351,0.0,1.0,62,0.00,,CLR,0.00,VWS V14.00,2013-02-27 18:27:00,
2013-02-27 10:30:00,58.5,37.8,30.23,North,0,0.0,2.0,46,0.00,,CLR,0.00,VWS V14.00,2013-02-27 18:30:00,
2013-02-27 10:32:00,51.3,38.7,30.24,North,351,0.0,0.0,62,0.00,,CLR,0.00,VWS V14.00,2013-02-27 18:32:00,
2013-02-27 10:37:00,52.1,38.2,30.25,North,351,0.0,0.0,59,0.00,,CLR,0.00,VWS V14.00,2013-02-27 18:37:00,
2013-02-27 10:42:00,52.7,37.5,30.24,North,351,0.0,1.0,56,0.00,,CLR,0.00,VWS V14.00,2013-02-27 18:42:00,
2013-02-27 10:47:00,53.3,37.6,30.24,North,357,0.0,2.0,55,0.00,,BKN250,0.00,VWS V14.00,2013-02-27 18:47:00,
2013-02-27 10:52:00,54.0,38.7,30.25,North,358,0.0,2.0,56,0.00,,BKN250,0.00,VWS V14.00,2013-02-27 18:52:00,
2013-02-27 10:57:00,54.8,38.5,30.25,North,358,0.0,2.0,54,0.00,,BKN250,0.00,VWS V14.00,2013-02-27 18:57:00,
2013-02-27 11:00:00,63.1,37.8,30.22,North,351,0.0,1.0,39,0.00,,CLR,0.00,VWS V14.00,2013-02-27 19:00:00,
2013-02-27 11:02:00,55.0,37.7,30.25,North,358,0.0,0.0,52,0.00,,BKN250,0.00,VWS V14.00,2013-02-27 19:02:00,
2013-02-27 11:07:00,55.6,38.8,30.24,North,358,0.0,1.0,53,0.00,,BKN250,0.00,VWS V14.00,2013-02-27 19:07:00,
2013-02-27 11:12:00,56.1,38.7,30.23,North,358,0.0,1.0,52,0.00,,BKN250,0.00,VWS V14.00,2013-02-27 19:12:00,
2013-02-27 11:17:00,56.7,39.3,30.23,North,358,0.0,1.0,52,0.00,,BKN250,0.00,VWS V14.00,2013-02-27 19:17:00,
2013-02-27 11:22:00,57.4,38.4,30.24,North,0,0.0,2.0,49,0.00,,BKN250,0.00,VWS V14.00,2013-02-27 19:22:00,
2013-02-27 11:27:00,58.2,38.6,30.24,North,0,0.0,2.0,48,0.00,,BKN250,0.00,VWS V14.00,2013-02-27 19:27:00,
2013-02-27 11:30:00,67.3,38.0,30.21,NW,323,0.0,2.0,34,0.00,,CLR,0.00,VWS V14.00,2013-02-27 19:30:00,
2013-02-27 11:32:00,58.9,35.9,30.23,North,0,0.0,1.0,42,0.00,,BKN250,0.00,VWS V14.00,2013-02-27 19:32:00,
2013-02-27 11:37:00,59.5,37.0,30.23,NW,324,0.0,1.0,43,0.00,,BKN250,0.00,VWS V14.00,2013-02-27 19:37:00,
2013-02-27 11:42:00,60.9,37.7,30.23,NNW,328,0.0,1.0,42,0.00,,BKN250,0.00,VWS V14.00,2013-02-27 19:42:00,
2013-02-27 11:47:00,61.2,38.5,30.23,NNW,348,0.0,1.0,43,0.00,,BKN250,0.00,VWS V14.00,2013-02-27 19:47:00,
2013-02-27 11:52:00,62.0,38.7,30.23,North,354,0.0,1.0,42,0.00,,BKN250,0.00,VWS V14.00,2013-02-27 19:52:00,
2013-02-27 11:57:00,62.7,37.4,30.22,North,351,0.0,1.0,39,0.00,,BKN250,0.00,VWS V14.00,2013-02-27 19:57:00,
2013-02-27 12:00:00,70.8,37.0,30.21,North,0,0.0,2.0,29,0.00,,CLR,0.00,VWS V14.00,2013-02-27 20:00:00,
2013-02-27 12:02:00,63.5,37.5,30.22,North,351,0.0,0.0,38,0.00,,BKN250,0.00,VWS V14.00,2013-02-27 20:02:00,
2013-02-27 12:07:00,64.2,38.1,30.22,ENE,69,0.0,2.0,38,0.00,,BKN250,0.00,VWS V14.00,2013-02-27 20:07:00,
2013-02-27 12:12:00,64.9,37.3,30.22,ENE,68,0.0,2.0,36,0.00,,BKN250,0.00,VWS V14.00,2013-02-27 20:12:00,
2013-02-27 12:17:00,65.8,38.8,30.22,NNE,19,0.0,2.0,37,0.00,,BKN250,0.00,VWS V14.00,2013-02-27 20:17:00,
2013-02-27 12:22:00,66.2,38.5,30.21,North,9,0.0,2.0,36,0.00,,BKN250,0.00,VWS V14.00,2013-02-27 20:22:00,
2013-02-27 12:27:00,66.8,36.8,30.22,NNW,329,0.0,2.0,33,0.00,,BKN250,0.00,VWS V14.00,2013-02-27 20:27:00,
2013-02-27 12:30:00,74.7,41.2,30.19,SSW,205,0.0,2.0,30,0.00,,CLR,0.00,VWS V14.00,2013-02-27 20:30:00,
2013-02-27 12:32:00,67.4,36.5,30.21,NW,325,0.0,1.0,32,0.00,,BKN250,0.00,VWS V14.00,2013-02-27 20:32:00,
2013-02-27 12:37:00,68.4,37.4,30.21,North,0,1.0,2.0,32,0.00,,BKN250,0.00,VWS V14.00,2013-02-27 20:37:00,
2013-02-27 12:42:00,68.7,36.9,30.21,North,0,0.0,2.0,31,0.00,,BKN250,0.00,VWS V14.00,2013-02-27 20:42:00,
2013-02-27 12:47:00,69.8,36.1,30.21,North,0,0.0,2.0,29,0.00,,BKN250,0.00,VWS V14.00,2013-02-27 20:47:00,
2013-02-27 12:52:00,70.3,36.6,30.21,North,0,0.0,2.0,29,0.00,,BKN250,0.00,VWS V14.00,2013-02-27 20:52:00,
2013-02-27 12:57:00,70.8,37.9,30.20,North,0,0.0,2.0,30,0.00,,BKN250,0.00,VWS V14.00,2013-02-27 20:57:00,
2013-02-27 13:00:00,77.8,42.1,30.19,SSW,210,0.0,3.0,28,0.00,,CLR,0.00,VWS V14.00,2013-02-27 21:00:00,
2013-02-27 13:02:00,71.0,38.0,30.21,North,0,0.0,1.0,30,0.00,,CLR,0.00,VWS V14.00,2013-02-27 21:02:00,
2013-02-27 13:07:00,71.8,38.7,30.21,North,0,0.0,1.0,30,0.00,,CLR,0.00,VWS V14.00,2013-02-27 21:07:00,
2013-02-27 13:12:00,72.4,40.1,30.20,North,0,0.0,1.0,31,0.00,,CLR,0.00,VWS V14.00,2013-02-27 21:12:00,
2013-02-27 13:17:00,73.0,40.6,30.20,North,0,0.0,2.0,31,0.00,,CLR,0.00,VWS V14.00,2013-02-27 21:17:00,
2013-02-27 13:22:00,73.5,41.0,30.20,SSW,192,0.0,2.0,31,0.00,,CLR,0.00,VWS V14.00,2013-02-27 21:22:00,
2013-02-27 13:27:00,74.3,41.7,30.20,SSW,212,0.0,2.0,31,0.00,,CLR,0.00,VWS V14.00,2013-02-27 21:27:00,
2013-02-27 13:30:00,79.7,42.8,30.18,North,8,0.0,2.0,27,0.00,,CLR,0.00,VWS V14.00,2013-02-27 21:30:00,
2013-02-27 13:32:00,75.0,41.5,30.19,SSW,205,0.0,1.0,30,0.00,,CLR,0.00,VWS V14.00,2013-02-27 21:32:00,
2013-02-27 13:37:00,75.7,41.2,30.19,SSW,208,0.0,1.0,29,0.00,,CLR,0.00,VWS V14.00,2013-02-27 21:37:00,
2013-02-27 13:42:00,75.9,40.5,30.19,SE,124,0.0,2.0,28,0.00,,CLR,0.00,VWS V14.00,2013-02-27 21:42:00,
2013-02-27 13:47:00,76.3,40.8,30.19,SSE,153,0.0,2.0,28,0.00,,CLR,0.00,VWS V14.00,2013-02-27 21:47:00,
2013-02-27 13:52:00,77.1,41.5,30.19,SSW,211,0.0,3.0,28,0.00,,CLR,0.00,VWS V14.00,2013-02-27 21:52:00,
2013-02-27 13:57:00,77.4,41.8,30.18,SSW,212,0.0,3.0,28,0.00,,CLR,0.00,VWS V14.00,2013-02-27 21:57:00,
2013-02-27 14:00:00,80.4,42.4,30.18,NNE,13,0.0,2.0,26,0.00,,CLR,0.00,VWS V14.00,2013-02-27 22:00:00,
2013-02-27 14:02:00,78.1,41.4,30.19,SSW,207,0.0,0.0,27,0.00,,CLR,0.00,VWS V14.00,2013-02-27 22:02:00,
2013-02-27 14:07:00,78.5,41.8,30.18,SE,129,0.0,1.0,27,0.00,,CLR,0.00,VWS V14.00,2013-02-27 22:07:00,
2013-02-27 14:12:00,78.6,41.9,30.18,SE,125,0.0,1.0,27,0.00,,CLR,0.00,VWS V14.00,2013-02-27 22:12:00,
2013-02-27 14:17:00,79.2,42.4,30.18,SE,125,0.0,1.0,27,0.00,,CLR,0.00,VWS V14.00,2013-02-27 22:17:00,
2013-02-27 14:22:00,79.8,41.9,30.18,ESE,123,0.0,1.0,26,0.00,,CLR,0.00,VWS V14.00,2013-02-27 22:22:00,
2013-02-27 14:27:00,79.7,42.8,30.18,North,9,0.0,2.0,27,0.00,,CLR,0.00,VWS V14.00,2013-02-27 22:27:00,
2013-02-27 14:30:00,81.2,44.1,30.18,NNW,339,0.0,3.0,27,0.00,,CLR,0.00,VWS V14.00,2013-02-27 22:30:00,
2013-02-27 14:32:00,79.6,42.7,30.18,North,8,0.0,0.0,27,0.00,,CLR,0.00,VWS V14.00,2013-02-27 22:32:00,
2013-02-27 14:37:00,80.3,43.3,30.18,North,7,0.0,1.0,27,0.00,,CLR,0.00,VWS V14.00,2013-02-27 22:37:00,
2013-02-27 14:42:00,80.1,43.1,30.18,North,7,0.0,1.0,27,0.00,,CLR,0.00,VWS V14.00,2013-02-27 22:42:00,
2013-02-27 14:47:00,80.4,43.4,30.18,North,7,0.0,1.0,27,0.00,,CLR,0.00,VWS V14.00,2013-02-27 22:47:00,
2013-02-27 14:52:00,80.8,43.7,30.18,North,7,0.0,1.0,27,0.00,,CLR,0.00,VWS V14.00,2013-02-27 22:52:00,
2013-02-27 14:57:00,80.9,43.8,30.18,North,7,0.0,1.0,27,0.00,,CLR,0.00,VWS V14.00,2013-02-27 22:57:00,
2013-02-27 15:00:00,80.1,44.1,30.18,North,352,1.0,4.0,28,0.00,,CLR,0.00,VWS V14.00,2013-02-27 23:00:00,
2013-02-27 15:02:00,80.4,42.4,30.18,NNE,12,0.0,2.0,26,0.00,,CLR,0.00,VWS V14.00,2013-02-27 23:02:00,
2013-02-27 15:07:00,80.4,43.4,30.18,NNE,12,0.0,2.0,27,0.00,,CLR,0.00,VWS V14.00,2013-02-27 23:07:00,
2013-02-27 15:12:00,80.9,42.8,30.18,NNE,12,1.0,2.0,26,0.00,,CLR,0.00,VWS V14.00,2013-02-27 23:12:00,
2013-02-27 15:17:00,80.9,42.8,30.18,NNE,12,0.0,2.0,26,0.00,,CLR,0.00,VWS V14.00,2013-02-27 23:17:00,
2013-02-27 15:22:00,81.3,42.2,30.18,NNE,12,0.0,2.0,25,0.00,,CLR,0.00,VWS V14.00,2013-02-27 23:22:00,
2013-02-27 15:27:00,81.2,44.1,30.18,North,10,1.0,2.0,27,0.00,,CLR,0.00,VWS V14.00,2013-02-27 23:27:00,
2013-02-27 15:30:00,76.6,43.7,30.18,NNW,343,0.0,3.0,31,0.00,,CLR,0.00,VWS V14.00,2013-02-27 23:30:00,
2013-02-27 15:32:00,81.0,43.9,30.18,North,0,0.0,2.0,27,0.00,,CLR,0.00,VWS V14.00,2013-02-27 23:32:00,
2013-02-27 15:37:00,81.0,43.9,30.18,North,354,0.0,4.0,27,0.00,,CLR,0.00,VWS V14.00,2013-02-27 23:37:00,
2013-02-27 15:42:00,80.5,43.5,30.18,North,349,0.0,4.0,27,0.00,,CLR,0.00,VWS V14.00,2013-02-27 23:42:00,
2013-02-27 15:47:00,80.3,43.3,30.18,NNW,347,0.0,4.0,27,0.00,,CLR,0.00,VWS V14.00,2013-02-27 23:47:00,
2013-02-27 15:52:00,79.9,43.0,30.18,North,351,0.0,4.0,27,0.00,,CLR,0.00,VWS V14.00,2013-02-27 23:52:00,
2013-02-27 15:57:00,80.0,44.0,30.18,North,352,0.0,4.0,28,0.00,,CLR,0.00,VWS V14.00,2013-02-27 23:57:00,
2013-02-27 16:00:00,80.1,44.1,30.18,North,352,1.0,4.0,28,0.00,,CLR,0.00,VWS V15.00,2013-02-28 00:00:00,
2013-02-27 16:02:00,80.0,44.9,30.18,North,353,0.0,1.0,29,0.00,,CLR,0.00,VWS V14.00,2013-02-28 00:02:00,
2013-02-27 16:07:00,80.2,45.1,30.18,NNW,348,0.0,1.0,29,0.00,,CLR,0.00,VWS V14.00,2013-02-28 00:07:00,
2013-02-27 16:12:00,79.3,44.3,30.18,North,0,0.0,3.0,29,0.00,,CLR,0.00,VWS V14.00,2013-02-28 00:12:00,
2013-02-27 16:17:00,78.6,43.7,30.18,North,0,0.0,3.0,29,0.00,,CLR,0.00,VWS V14.00,2013-02-28 00:17:00,
2013-02-27 16:22:00,77.7,43.8,30.18,West,263,0.0,3.0,30,0.00,,CLR,0.00,VWS V14.00,2013-02-28 00:22:00,
2013-02-27 16:27:00,77.2,43.4,30.18,NW,323,0.0,3.0,30,0.00,,CLR,0.00,VWS V14.00,2013-02-28 00:27:00,
2013-02-27 16:30:00,70.6,43.1,30.19,North,0,0.0,2.0,37,0.00,,CLR,0.00,VWS V14.00,2013-02-28 00:30:00,
2013-02-27 16:32:00,76.3,43.5,30.18,NNW,342,0.0,0.0,31,0.00,,CLR,0.00,VWS V14.00,2013-02-28 00:32:00,
2013-02-27 16:37:00,75.9,43.1,30.18,NNW,341,0.0,1.0,31,0.00,,CLR,0.00,VWS V14.00,2013-02-28 00:37:00,
2013-02-27 16:42:00,75.1,43.3,30.18,NNW,339,0.0,1.0,32,0.00,,CLR,0.00,VWS V14.00,2013-02-28 00:42:00,
2013-02-27 16:47:00,75.0,44.0,30.18,NNW,343,0.0,1.0,33,0.00,,CLR,0.00,VWS V14.00,2013-02-28 00:47:00,
2013-02-27 16:52:00,73.9,43.0,30.18,NNW,341,0.0,2.0,33,0.00,,CLR,0.00,VWS V14.00,2013-02-28 00:52:00,
2013-02-27 16:57:00,73.7,42.8,30.19,NNW,341,0.0,2.0,33,0.00,,CLR,0.00,VWS V14.00,2013-02-28 00:57:00,
2013-02-27 17:00:00,67.8,44.5,30.19,WNW,293,0.0,1.0,43,0.00,,CLR,0.00,VWS V14.00,2013-02-28 01:00:00,
2013-02-27 17:02:00,73.1,43.1,30.18,North,0,0.0,2.0,34,0.00,,CLR,0.00,VWS V14.00,2013-02-28 01:02:00,
2013-02-27 17:07:00,72.7,42.7,30.18,North,0,0.0,2.0,34,0.00,,CLR,0.00,VWS V14.00,2013-02-28 01:07:00,
2013-02-27 17:12:00,72.3,42.4,30.19,North,0,0.0,2.0,34,0.00,,CLR,0.00,VWS V14.00,2013-02-28 01:12:00,
2013-02-27 17:17:00,72.1,43.0,30.18,North,0,0.0,2.0,35,0.00,,CLR,0.00,VWS V14.00,2013-02-28 01:17:00,
2013-02-27 17:22:00,71.8,42.7,30.19,North,0,0.0,2.0,35,0.00,,CLR,0.00,VWS V14.00,2013-02-28 01:22:00,
2013-02-27 17:27:00,70.9,42.6,30.18,North,0,0.0,2.0,36,0.00,,CLR,0.00,VWS V14.00,2013-02-28 01:27:00,
2013-02-27 17:30:00,65.2,45.6,30.21,WNW,293,0.0,0.0,49,0.00,,CLR,0.00,VWS V14.00,2013-02-28 01:30:00,
2013-02-27 17:32:00,70.6,42.4,30.19,North,0,0.0,0.0,36,0.00,,CLR,0.00,VWS V14.00,2013-02-28 01:32:00,
2013-02-27 17:37:00,70.0,42.6,30.19,WNW,293,0.0,1.0,37,0.00,,CLR,0.00,VWS V14.00,2013-02-28 01:37:00,
2013-02-27 17:42:00,69.8,43.8,30.19,WNW,294,0.0,1.0,39,0.00,,CLR,0.00,VWS V14.00,2013-02-28 01:42:00,
2013-02-27 17:47:00,69.0,43.7,30.19,WNW,293,0.0,1.0,40,0.00,,CLR,0.00,VWS V14.00,2013-02-28 01:47:00,
2013-02-27 17:52:00,68.8,44.2,30.19,WNW,293,0.0,1.0,41,0.00,,CLR,0.00,VWS V14.00,2013-02-28 01:52:00,
2013-02-27 17:57:00,67.9,44.6,30.19,WNW,293,0.0,1.0,43,0.00,,CLR,0.00,VWS V14.00,2013-02-28 01:57:00,
2013-02-27 18:00:00,62.4,44.0,30.23,WNW,293,0.0,0.0,51,0.00,,CLR,0.00,VWS V14.00,2013-02-28 02:00:00,
2013-02-27 18:02:00,67.5,44.8,30.20,WNW,293,0.0,0.0,44,0.00,,CLR,0.00,VWS V14.00,2013-02-28 02:02:00,
2013-02-27 18:07:00,67.3,45.2,30.19,WNW,294,0.0,0.0,45,0.00,,CLR,0.00,VWS V14.00,2013-02-28 02:07:00,
2013-02-27 18:12:00,66.9,45.5,30.19,WNW,293,0.0,0.0,46,0.00,,CLR,0.00,VWS V14.00,2013-02-28 02:12:00,
2013-02-27 18:17:00,66.3,46.0,30.20,WNW,293,0.0,0.0,48,0.00,,CLR,0.00,VWS V14.00,2013-02-28 02:17:00,
2013-02-27 18:22:00,65.5,45.3,30.20,WNW,294,0.0,0.0,48,0.00,,CLR,0.00,VWS V14.00,2013-02-28 02:22:00,
2013-02-27 18:27:00,65.3,45.7,30.21,WNW,293,0.0,0.0,49,0.00,,CLR,0.00,VWS V14.00,2013-02-28 02:27:00,
2013-02-27 18:30:00,59.8,42.7,30.24,WNW,293,0.0,0.0,53,0.00,,CLR,0.00,VWS V14.00,2013-02-28 02:30:00,
2013-02-27 18:32:00,64.9,45.3,30.21,WNW,293,0.0,0.0,49,0.00,,CLR,0.00,VWS V14.00,2013-02-28 02:32:00,
2013-02-27 18:37:00,64.4,45.4,30.21,WNW,293,0.0,0.0,50,0.00,,CLR,0.00,VWS V14.00,2013-02-28 02:37:00,
2013-02-27 18:42:00,63.9,45.4,30.21,WNW,293,0.0,0.0,51,0.00,,CLR,0.00,VWS V14.00,2013-02-28 02:42:00,
2013-02-27 18:47:00,63.4,45.0,30.22,WNW,293,0.0,0.0,51,0.00,,CLR,0.00,VWS V14.00,2013-02-28 02:47:00,
2013-02-27 18:52:00,63.0,45.1,30.22,WNW,293,0.0,0.0,52,0.00,,CLR,0.00,VWS V14.00,2013-02-28 02:52:00,
2013-02-27 18:57:00,62.5,44.7,30.22,WNW,293,0.0,0.0,52,0.00,,CLR,0.00,VWS V14.00,2013-02-28 02:57:00,
2013-02-27 19:00:00,58.2,41.7,30.25,WNW,293,0.0,1.0,54,0.00,,CLR,0.00,VWS V14.00,2013-02-28 03:00:00,
2013-02-27 19:02:00,62.1,43.8,30.22,WNW,293,0.0,0.0,51,0.00,,CLR,0.00,VWS V14.00,2013-02-28 03:02:00,
2013-02-27 19:07:00,61.7,43.4,30.23,WNW,293,0.0,0.0,51,0.00,,CLR,0.00,VWS V14.00,2013-02-28 03:07:00,
2013-02-27 19:12:00,61.1,41.8,30.23,WNW,293,0.0,0.0,49,0.00,,CLR,0.00,VWS V14.00,2013-02-28 03:12:00,
2013-02-27 19:17:00,60.8,42.1,30.23,WNW,293,0.0,0.0,50,0.00,,CLR,0.00,VWS V14.00,2013-02-28 03:17:00,
2013-02-27 19:22:00,60.2,41.5,30.23,WNW,293,0.0,0.0,50,0.00,,CLR,0.00,VWS V14.00,2013-02-28 03:22:00,
2013-02-27 19:27:00,60.1,42.9,30.24,WNW,293,0.0,0.0,53,0.00,,CLR,0.00,VWS V14.00,2013-02-28 03:27:00,
2013-02-27 19:30:00,56.6,42.5,30.25,WNW,290,0.0,1.0,59,0.00,,CLR,0.00,VWS V14.00,2013-02-28 03:30:00,
2013-02-27 19:32:00,59.5,42.9,30.24,WNW,293,0.0,0.0,54,0.00,,CLR,0.00,VWS V14.00,2013-02-28 03:32:00,
2013-02-27 19:37:00,59.2,43.1,30.24,WNW,293,0.0,0.0,55,0.00,,CLR,0.00,VWS V14.00,2013-02-28 03:37:00,
2013-02-27 19:42:00,58.9,42.3,30.25,WNW,293,0.0,1.0,54,0.00,,CLR,0.00,VWS V14.00,2013-02-28 03:42:00,
2013-02-27 19:47:00,58.8,42.2,30.25,WNW,293,0.0,1.0,54,0.00,,CLR,0.00,VWS V14.00,2013-02-28 03:47:00,
2013-02-27 19:52:00,58.5,41.9,30.25,WNW,293,0.0,1.0,54,0.00,,CLR,0.00,VWS V14.00,2013-02-28 03:52:00,
2013-02-27 19:57:00,58.3,41.8,30.25,WNW,293,0.0,1.0,54,0.00,,CLR,0.00,VWS V14.00,2013-02-28 03:57:00,
2013-02-27 20:00:00,55.4,43.0,30.26,WNW,290,0.0,1.0,63,0.00,,CLR,0.00,VWS V14.00,2013-02-28 04:00:00,
2013-02-27 20:02:00,58.1,41.6,30.25,WNW,294,0.0,0.0,54,0.00,,CLR,0.00,VWS V14.00,2013-02-28 04:02:00,
2013-02-27 20:07:00,57.9,41.8,30.25,WNW,293,0.0,0.0,55,0.00,,CLR,0.00,VWS V14.00,2013-02-28 04:07:00,
2013-02-27 20:12:00,57.6,42.0,30.25,WNW,293,0.0,0.0,56,0.00,,CLR,0.00,VWS V14.00,2013-02-28 04:12:00,
2013-02-27 20:17:00,57.5,42.8,30.25,WNW,293,0.0,0.0,58,0.00,,CLR,0.00,VWS V14.00,2013-02-28 04:17:00,
2013-02-27 20:22:00,57.2,43.0,30.25,WNW,293,0.0,0.0,59,0.00,,CLR,0.00,VWS V14.00,2013-02-28 04:22:00,
2013-02-27 20:27:00,57.1,43.4,30.26,WNW,290,0.0,1.0,60,0.00,,CLR,0.00,VWS V14.00,2013-02-28 04:27:00,
2013-02-27 20:30:00,54.4,42.9,30.27,WNW,290,0.0,1.0,65,0.00,,CLR,0.00,VWS V14.00,2013-02-28 04:30:00,
2013-02-27 20:32:00,56.7,43.0,30.26,WNW,290,0.0,0.0,60,0.00,,CLR,0.00,VWS V14.00,2013-02-28 04:32:00,
2013-02-27 20:37:00,56.4,42.7,30.26,WNW,289,0.0,0.0,60,0.00,,CLR,0.00,VWS V14.00,2013-02-28 04:37:00,
2013-02-27 20:42:00,56.1,42.8,30.26,WNW,290,0.0,0.0,61,0.00,,CLR,0.00,VWS V14.00,2013-02-28 04:42:00,
2013-02-27 20:47:00,56.0,42.8,30.26,WNW,289,0.0,0.0,61,0.00,,CLR,0.00,VWS V14.00,2013-02-28 04:47:00,
2013-02-27 20:52:00,55.8,43.0,30.26,WNW,290,0.0,0.0,62,0.00,,CLR,0.00,VWS V14.00,2013-02-28 04:52:00,
2013-02-27 20:57:00,55.7,42.9,30.26,WNW,290,0.0,1.0,62,0.00,,CLR,0.00,VWS V14.00,2013-02-28 04:57:00,
2013-02-27 21:00:00,55.4,43.0,30.26,WNW,290,0.0,1.0,63,0.00,,CLR,0.00,VWS V14.00,2013-02-28 05:00:00,
2013-02-27 21:05:00,55.2,42.8,30.26,WNW,290,0.0,0.0,63,0.00,,CLR,0.00,VWS V14.00,2013-02-28 05:05:00,
2013-02-27 21:10:00,55.0,43.1,30.26,WNW,289,0.0,0.0,64,0.00,,CLR,0.00,VWS V14.00,2013-02-28 05:10:00,
2013-02-27 21:15:00,54.6,42.7,30.26,WNW,290,0.0,1.0,64,0.00,,CLR,0.00,VWS V14.00,2013-02-28 05:15:00,
2013-02-27 21:20:00,54.7,42.8,30.26,WNW,290,0.0,1.0,64,0.00,,CLR,0.00,VWS V14.00,2013-02-28 05:20:00,
2013-02-27 21:25:00,54.6,43.1,30.27,WNW,290,0.0,1.0,65,0.00,,CLR,0.00,VWS V14.00,2013-02-28 05:25:00,
2013-02-27 21:30:00,54.4,42.9,30.27,WNW,290,0.0,0.0,65,0.00,,CLR,0.00,VWS V14.00,2013-02-28 05:30:00,
2013-02-27 21:35:00,54.4,42.9,30.27,WNW,290,0.0,0.0,65,0.00,,CLR,0.00,VWS V14.00,2013-02-28 05:35:00,
2013-02-27 21:40:00,54.2,42.7,30.27,WNW,290,0.0,0.0,65,0.00,,CLR,0.00,VWS V14.00,2013-02-28 05:40:00,
2013-02-27 21:45:00,54.2,43.1,30.27,WNW,290,0.0,0.0,66,0.00,,CLR,0.00,VWS V14.00,2013-02-28 05:45:00,
2013-02-27 21:50:00,54.0,43.3,30.28,WNW,290,0.0,0.0,67,0.00,,CLR,0.00,VWS V14.00,2013-02-28 05:50:00,
2013-02-27 21:55:00,53.7,43.4,30.27,WNW,290,0.0,0.0,68,0.00,,CLR,0.00,VWS V14.00,2013-02-28 05:55:00,
2013-02-27 22:00:00,53.3,43.0,30.27,WNW,290,0.0,0.0,68,0.00,,CLR,0.00,VWS V14.00,2013-02-28 06:00:00,
2013-02-27 22:05:00,53.3,43.4,30.28,WNW,290,0.0,1.0,69,0.00,,CLR,0.00,VWS V14.00,2013-02-28 06:05:00,
2013-02-27 22:10:00,53.2,44.0,30.28,WNW,289,0.0,1.0,71,0.00,,CLR,0.00,VWS V14.00,2013-02-28 06:10:00,
2013-02-27 22:15:00,53.0,44.2,30.28,WNW,288,0.0,1.0,72,0.00,,CLR,0.00,VWS V14.00,2013-02-28 06:15:00,
2013-02-27 22:20:00,52.8,44.0,30.28,WNW,288,0.0,1.0,72,0.00,,CLR,0.00,VWS V14.00,2013-02-28 06:20:00,
2013-02-27 22:25:00,52.7,43.9,30.28,WNW,288,0.0,1.0,72,0.00,,CLR,0.00,VWS V14.00,2013-02-28 06:25:00,
2013-02-27 22:30:00,52.3,43.5,30.28,WNW,288,0.0,0.0,72,0.00,,CLR,0.00,VWS V14.00,2013-02-28 06:30:00,
2013-02-27 22:35:00,52.1,43.7,30.28,WNW,288,0.0,0.0,73,0.00,,CLR,0.00,VWS V14.00,2013-02-28 06:35:00,
2013-02-27 22:40:00,52.0,43.6,30.28,WNW,288,0.0,0.0,73,0.00,,CLR,0.00,VWS V14.00,2013-02-28 06:40:00,
2013-02-27 22:45:00,51.7,43.7,30.28,WNW,288,0.0,0.0,74,0.00,,CLR,0.00,VWS V14.00,2013-02-28 06:45:00,
2013-02-27 22:50:00,51.5,43.8,30.29,WNW,288,0.0,0.0,75,0.00,,CLR,0.00,VWS V14.00,2013-02-28 06:50:00,
2013-02-27 22:55:00,51.6,44.3,30.28,WNW,288,0.0,0.0,76,0.00,,CLR,0.00,VWS V14.00,2013-02-28 06:55:00,
2013-02-27 23:00:00,51.1,43.8,30.29,WNW,288,0.0,0.0,76,0.00,,CLR,0.00,VWS V14.00,2013-02-28 07:00:00,
2013-02-27 23:05:00,51.2,43.9,30.29,WNW,288,0.0,0.0,76,0.00,,CLR,0.00,VWS V14.00,2013-02-28 07:05:00,
2013-02-27 23:10:00,50.9,44.0,30.29,WNW,288,0.0,0.0,77,0.00,,CLR,0.00,VWS V14.00,2013-02-28 07:10:00,
2013-02-27 23:15:00,50.7,44.1,30.29,WNW,288,0.0,0.0,78,0.00,,CLR,0.00,VWS V14.00,2013-02-28 07:15:00,
2013-02-27 23:20:00,50.6,44.0,30.28,WNW,288,0.0,0.0,78,0.00,,CLR,0.00,VWS V14.00,2013-02-28 07:20:00,
2013-02-27 23:25:00,50.5,44.2,30.29,WNW,288,0.0,0.0,79,0.00,,CLR,0.00,VWS V14.00,2013-02-28 07:25:00,
2013-02-27 23:30:00,50.5,44.2,30.29,WNW,288,0.0,0.0,79,0.00,,CLR,0.00,VWS V14.00,2013-02-28 07:30:00,
2013-02-27 23:35:00,50.4,44.5,30.29,WNW,288,0.0,0.0,80,0.00,,CLR,0.00,VWS V14.00,2013-02-28 07:35:00,
2013-02-27 23:40:00,50.5,44.6,30.28,WNW,288,0.0,0.0,80,0.00,,CLR,0.00,VWS V14.00,2013-02-28 07:40:00,
2013-02-27 23:45:00,50.5,44.6,30.29,WNW,287,0.0,0.0,80,0.00,,CLR,0.00,VWS V14.00,2013-02-28 07:45:00,
2013-02-27 23:50:00,50.4,44.1,30.29,WNW,288,0.0,0.0,79,0.00,,CLR,0.00,VWS V14.00,2013-02-28 07:50:00,
2013-02-27 23:55:00,50.2,44.0,30.28,WNW,288,0.0,0.0,79,0.00,,CLR,0.00,VWS V14.00,2013-02-28 07:55:00,